sensor_id;sensor_type;location;lat;lon;timestamp;P1;durP1;ratioP1;P2;durP2;ratioP2
71038;SDS011;58692;43.212;27.908;2023-12-29T00:01:24;26.33;;;15.23;;
71038;SDS011;58692;43.212;27.908;2023-12-29T00:03:54;26.67;;;15.80;;
71038;SDS011;58692;43.212;27.908;2023-12-29T00:06:19;28.60;;;15.50;;
71038;SDS011;58692;43.212;27.908;2023-12-29T00:08:45;29.37;;;16.13;;
71038;SDS011;58692;43.212;27.908;2023-12-29T00:11:19;28.83;;;16.48;;
71038;SDS011;58692;43.212;27.908;2023-12-29T00:13:45;26.75;;;15.75;;
71038;SDS011;58692;43.212;27.908;2023-12-29T00:16:12;28.07;;;16.60;;
71038;SDS011;58692;43.212;27.908;2023-12-29T00:18:37;28.95;;;16.02;;
71038;SDS011;58692;43.212;27.908;2023-12-29T00:21:04;26.65;;;16.10;;
71038;SDS011;58692;43.212;27.908;2023-12-29T00:23:30;29.80;;;16.83;;
71038;SDS011;58692;43.212;27.908;2023-12-29T00:25:56;28.98;;;17.15;;
71038;SDS011;58692;43.212;27.908;2023-12-29T00:28:21;31.33;;;16.03;;
71038;SDS011;58692;43.212;27.908;2023-12-29T00:30:47;30.05;;;16.58;;
71038;SDS011;58692;43.212;27.908;2023-12-29T00:33:13;32.03;;;16.63;;
71038;SDS011;58692;43.212;27.908;2023-12-29T00:35:38;27.20;;;16.65;;
71038;SDS011;58692;43.212;27.908;2023-12-29T00:38:04;26.60;;;14.93;;
71038;SDS011;58692;43.212;27.908;2023-12-29T00:40:31;27.10;;;16.40;;
71038;SDS011;58692;43.212;27.908;2023-12-29T00:42:57;27.60;;;18.02;;
71038;SDS011;58692;43.212;27.908;2023-12-29T00:45:23;30.92;;;18.83;;
71038;SDS011;58692;43.212;27.908;2023-12-29T00:47:48;30.87;;;18.87;;
71038;SDS011;58692;43.212;27.908;2023-12-29T00:50:16;31.38;;;18.50;;
71038;SDS011;58692;43.212;27.908;2023-12-29T00:52:42;30.52;;;17.63;;
71038;SDS011;58692;43.212;27.908;2023-12-29T00:55:07;30.10;;;17.67;;
71038;SDS011;58692;43.212;27.908;2023-12-29T00:57:33;30.33;;;16.85;;
71038;SDS011;58692;43.212;27.908;2023-12-29T00:59:59;28.67;;;16.40;;
71038;SDS011;58692;43.212;27.908;2023-12-29T01:02:26;29.13;;;16.33;;
71038;SDS011;58692;43.212;27.908;2023-12-29T01:04:51;31.37;;;17.17;;
71038;SDS011;58692;43.212;27.908;2023-12-29T01:07:17;30.40;;;16.95;;
71038;SDS011;58692;43.212;27.908;2023-12-29T01:09:43;32.97;;;17.10;;
71038;SDS011;58692;43.212;27.908;2023-12-29T01:12:09;31.90;;;17.95;;
71038;SDS011;58692;43.212;27.908;2023-12-29T01:14:34;34.33;;;17.57;;
71038;SDS011;58692;43.212;27.908;2023-12-29T01:17:00;31.60;;;16.13;;
71038;SDS011;58692;43.212;27.908;2023-12-29T01:19:26;32.35;;;16.73;;
71038;SDS011;58692;43.212;27.908;2023-12-29T01:21:51;28.40;;;15.47;;
71038;SDS011;58692;43.212;27.908;2023-12-29T01:24:17;29.10;;;14.77;;
71038;SDS011;58692;43.212;27.908;2023-12-29T01:26:43;28.03;;;15.00;;
71038;SDS011;58692;43.212;27.908;2023-12-29T01:29:08;28.00;;;14.30;;
71038;SDS011;58692;43.212;27.908;2023-12-29T01:31:34;31.85;;;14.50;;
71038;SDS011;58692;43.212;27.908;2023-12-29T01:33:59;31.80;;;14.47;;
71038;SDS011;58692;43.212;27.908;2023-12-29T01:36:25;25.40;;;14.85;;
71038;SDS011;58692;43.212;27.908;2023-12-29T01:38:51;30.23;;;14.87;;
71038;SDS011;58692;43.212;27.908;2023-12-29T01:41:19;31.38;;;15.18;;
71038;SDS011;58692;43.212;27.908;2023-12-29T01:46:28;30.27;;;14.75;;
71038;SDS011;58692;43.212;27.908;2023-12-29T01:48:55;29.10;;;14.30;;
71038;SDS011;58692;43.212;27.908;2023-12-29T01:51:24;27.33;;;14.80;;
71038;SDS011;58692;43.212;27.908;2023-12-29T01:53:51;30.17;;;15.02;;
71038;SDS011;58692;43.212;27.908;2023-12-29T01:56:19;27.38;;;14.65;;
71038;SDS011;58692;43.212;27.908;2023-12-29T01:58:47;28.63;;;14.00;;
71038;SDS011;58692;43.212;27.908;2023-12-29T02:01:15;26.00;;;14.20;;
71038;SDS011;58692;43.212;27.908;2023-12-29T02:03:42;25.42;;;14.02;;
71038;SDS011;58692;43.212;27.908;2023-12-29T02:06:08;26.58;;;14.73;;
71038;SDS011;58692;43.212;27.908;2023-12-29T02:08:36;29.70;;;14.65;;
71038;SDS011;58692;43.212;27.908;2023-12-29T02:11:03;26.58;;;14.23;;
71038;SDS011;58692;43.212;27.908;2023-12-29T02:13:29;28.40;;;13.93;;
71038;SDS011;58692;43.212;27.908;2023-12-29T02:15:55;30.60;;;14.05;;
71038;SDS011;58692;43.212;27.908;2023-12-29T02:18:29;27.13;;;15.10;;
71038;SDS011;58692;43.212;27.908;2023-12-29T02:20:58;26.37;;;13.87;;
71038;SDS011;58692;43.212;27.908;2023-12-29T02:23:23;25.33;;;13.65;;
71038;SDS011;58692;43.212;27.908;2023-12-29T02:25:49;23.70;;;13.40;;
71038;SDS011;58692;43.212;27.908;2023-12-29T02:28:23;22.98;;;13.70;;
71038;SDS011;58692;43.212;27.908;2023-12-29T02:33:18;26.10;;;13.43;;
71038;SDS011;58692;43.212;27.908;2023-12-29T02:35:46;27.08;;;12.80;;
71038;SDS011;58692;43.212;27.908;2023-12-29T02:38:19;25.20;;;13.18;;
71038;SDS011;58692;43.212;27.908;2023-12-29T02:40:45;25.17;;;13.27;;
71038;SDS011;58692;43.212;27.908;2023-12-29T02:43:11;37.22;;;18.85;;
71038;SDS011;58692;43.212;27.908;2023-12-29T02:45:37;44.17;;;23.97;;
71038;SDS011;58692;43.212;27.908;2023-12-29T02:48:03;39.43;;;23.40;;
71038;SDS011;58692;43.212;27.908;2023-12-29T02:50:28;41.78;;;24.40;;
71038;SDS011;58692;43.212;27.908;2023-12-29T02:52:54;41.72;;;23.77;;
71038;SDS011;58692;43.212;27.908;2023-12-29T02:55:20;39.40;;;22.70;;
71038;SDS011;58692;43.212;27.908;2023-12-29T02:57:45;42.73;;;22.53;;
71038;SDS011;58692;43.212;27.908;2023-12-29T03:00:11;37.80;;;22.00;;
71038;SDS011;58692;43.212;27.908;2023-12-29T03:02:37;37.60;;;21.05;;
71038;SDS011;58692;43.212;27.908;2023-12-29T03:05:03;34.73;;;19.07;;
71038;SDS011;58692;43.212;27.908;2023-12-29T03:07:28;31.05;;;18.27;;
71038;SDS011;58692;43.212;27.908;2023-12-29T03:09:54;31.63;;;16.70;;
71038;SDS011;58692;43.212;27.908;2023-12-29T03:12:20;28.88;;;15.27;;
71038;SDS011;58692;43.212;27.908;2023-12-29T03:14:46;29.45;;;14.80;;
71038;SDS011;58692;43.212;27.908;2023-12-29T03:17:12;27.47;;;15.43;;
71038;SDS011;58692;43.212;27.908;2023-12-29T03:19:38;28.67;;;15.50;;
71038;SDS011;58692;43.212;27.908;2023-12-29T03:22:04;29.20;;;14.82;;
71038;SDS011;58692;43.212;27.908;2023-12-29T03:24:29;28.03;;;14.47;;
71038;SDS011;58692;43.212;27.908;2023-12-29T03:26:55;26.33;;;14.18;;
71038;SDS011;58692;43.212;27.908;2023-12-29T03:29:21;26.75;;;15.10;;
71038;SDS011;58692;43.212;27.908;2023-12-29T03:31:47;33.13;;;16.97;;
71038;SDS011;58692;43.212;27.908;2023-12-29T03:34:12;29.38;;;17.13;;
71038;SDS011;58692;43.212;27.908;2023-12-29T03:36:38;27.90;;;16.33;;
71038;SDS011;58692;43.212;27.908;2023-12-29T03:39:04;30.23;;;16.30;;
71038;SDS011;58692;43.212;27.908;2023-12-29T03:41:29;31.47;;;16.07;;
71038;SDS011;58692;43.212;27.908;2023-12-29T03:43:55;31.38;;;15.57;;
71038;SDS011;58692;43.212;27.908;2023-12-29T03:46:21;27.17;;;14.47;;
71038;SDS011;58692;43.212;27.908;2023-12-29T03:48:48;25.55;;;14.90;;
71038;SDS011;58692;43.212;27.908;2023-12-29T03:51:14;28.65;;;13.95;;
71038;SDS011;58692;43.212;27.908;2023-12-29T03:53:41;26.50;;;13.73;;
71038;SDS011;58692;43.212;27.908;2023-12-29T03:56:08;27.77;;;14.52;;
71038;SDS011;58692;43.212;27.908;2023-12-29T03:58:34;31.10;;;14.27;;
71038;SDS011;58692;43.212;27.908;2023-12-29T04:01:01;23.77;;;14.23;;
71038;SDS011;58692;43.212;27.908;2023-12-29T04:03:27;25.20;;;14.27;;
71038;SDS011;58692;43.212;27.908;2023-12-29T04:05:53;29.55;;;15.45;;
71038;SDS011;58692;43.212;27.908;2023-12-29T04:08:18;29.80;;;15.17;;
71038;SDS011;58692;43.212;27.908;2023-12-29T04:10:44;31.23;;;14.82;;
71038;SDS011;58692;43.212;27.908;2023-12-29T04:13:10;26.67;;;13.53;;
71038;SDS011;58692;43.212;27.908;2023-12-29T04:15:35;29.47;;;14.27;;
71038;SDS011;58692;43.212;27.908;2023-12-29T04:18:01;32.90;;;14.25;;
71038;SDS011;58692;43.212;27.908;2023-12-29T04:20:26;28.50;;;14.57;;
71038;SDS011;58692;43.212;27.908;2023-12-29T04:22:53;26.02;;;14.60;;
71038;SDS011;58692;43.212;27.908;2023-12-29T04:25:20;28.63;;;15.18;;
71038;SDS011;58692;43.212;27.908;2023-12-29T04:27:45;35.90;;;15.70;;
71038;SDS011;58692;43.212;27.908;2023-12-29T04:30:11;32.13;;;14.82;;
71038;SDS011;58692;43.212;27.908;2023-12-29T04:32:37;33.27;;;15.67;;
71038;SDS011;58692;43.212;27.908;2023-12-29T04:35:02;28.85;;;15.00;;
71038;SDS011;58692;43.212;27.908;2023-12-29T04:37:28;27.37;;;14.70;;
71038;SDS011;58692;43.212;27.908;2023-12-29T04:39:54;35.30;;;16.25;;
71038;SDS011;58692;43.212;27.908;2023-12-29T04:42:20;31.47;;;15.27;;
71038;SDS011;58692;43.212;27.908;2023-12-29T04:44:45;34.28;;;15.75;;
71038;SDS011;58692;43.212;27.908;2023-12-29T04:47:11;27.63;;;14.70;;
71038;SDS011;58692;43.212;27.908;2023-12-29T04:49:36;32.22;;;15.02;;
71038;SDS011;58692;43.212;27.908;2023-12-29T04:52:02;27.23;;;15.03;;
71038;SDS011;58692;43.212;27.908;2023-12-29T04:54:28;27.08;;;15.15;;
71038;SDS011;58692;43.212;27.908;2023-12-29T04:56:54;26.97;;;13.90;;
71038;SDS011;58692;43.212;27.908;2023-12-29T04:59:19;25.43;;;13.13;;
71038;SDS011;58692;43.212;27.908;2023-12-29T05:01:45;27.97;;;13.87;;
71038;SDS011;58692;43.212;27.908;2023-12-29T05:04:10;27.33;;;14.10;;
71038;SDS011;58692;43.212;27.908;2023-12-29T05:06:36;22.58;;;13.27;;
71038;SDS011;58692;43.212;27.908;2023-12-29T05:09:02;29.40;;;14.33;;
71038;SDS011;58692;43.212;27.908;2023-12-29T05:11:27;27.73;;;13.93;;
71038;SDS011;58692;43.212;27.908;2023-12-29T05:13:53;27.30;;;13.37;;
71038;SDS011;58692;43.212;27.908;2023-12-29T05:16:19;27.75;;;13.85;;
71038;SDS011;58692;43.212;27.908;2023-12-29T05:18:45;28.55;;;15.35;;
71038;SDS011;58692;43.212;27.908;2023-12-29T05:21:14;27.80;;;15.40;;
71038;SDS011;58692;43.212;27.908;2023-12-29T05:23:41;30.08;;;15.63;;
71038;SDS011;58692;43.212;27.908;2023-12-29T05:26:07;29.87;;;15.10;;
71038;SDS011;58692;43.212;27.908;2023-12-29T05:28:32;31.77;;;16.20;;
71038;SDS011;58692;43.212;27.908;2023-12-29T05:30:58;35.00;;;17.70;;
71038;SDS011;58692;43.212;27.908;2023-12-29T05:33:28;30.55;;;15.77;;
71038;SDS011;58692;43.212;27.908;2023-12-29T05:35:54;32.13;;;15.15;;
71038;SDS011;58692;43.212;27.908;2023-12-29T05:38:20;30.27;;;15.37;;
71038;SDS011;58692;43.212;27.908;2023-12-29T05:40:45;30.15;;;16.00;;
71038;SDS011;58692;43.212;27.908;2023-12-29T05:43:11;29.73;;;15.40;;
71038;SDS011;58692;43.212;27.908;2023-12-29T05:45:36;30.23;;;15.47;;
71038;SDS011;58692;43.212;27.908;2023-12-29T05:48:02;28.38;;;15.20;;
71038;SDS011;58692;43.212;27.908;2023-12-29T05:50:28;29.83;;;15.77;;
71038;SDS011;58692;43.212;27.908;2023-12-29T05:52:53;50.50;;;18.33;;
71038;SDS011;58692;43.212;27.908;2023-12-29T05:55:19;43.73;;;23.53;;
71038;SDS011;58692;43.212;27.908;2023-12-29T05:57:44;41.80;;;24.35;;
71038;SDS011;58692;43.212;27.908;2023-12-29T06:00:10;50.50;;;25.33;;
71038;SDS011;58692;43.212;27.908;2023-12-29T06:02:40;45.30;;;26.10;;
71038;SDS011;58692;43.212;27.908;2023-12-29T06:05:07;45.22;;;24.13;;
71038;SDS011;58692;43.212;27.908;2023-12-29T06:07:35;39.23;;;20.23;;
71038;SDS011;58692;43.212;27.908;2023-12-29T06:10:01;46.72;;;21.10;;
71038;SDS011;58692;43.212;27.908;2023-12-29T06:12:27;37.00;;;17.73;;
71038;SDS011;58692;43.212;27.908;2023-12-29T06:14:52;36.10;;;16.77;;
71038;SDS011;58692;43.212;27.908;2023-12-29T06:17:18;37.27;;;18.03;;
71038;SDS011;58692;43.212;27.908;2023-12-29T06:19:43;37.53;;;17.80;;
71038;SDS011;58692;43.212;27.908;2023-12-29T06:22:09;36.83;;;16.63;;
71038;SDS011;58692;43.212;27.908;2023-12-29T06:24:37;28.52;;;15.05;;
71038;SDS011;58692;43.212;27.908;2023-12-29T06:27:03;28.67;;;14.57;;
71038;SDS011;58692;43.212;27.908;2023-12-29T06:29:29;29.50;;;14.32;;
71038;SDS011;58692;43.212;27.908;2023-12-29T06:31:54;28.73;;;14.50;;
71038;SDS011;58692;43.212;27.908;2023-12-29T06:34:20;32.27;;;15.00;;
71038;SDS011;58692;43.212;27.908;2023-12-29T06:36:46;32.90;;;16.40;;
71038;SDS011;58692;43.212;27.908;2023-12-29T06:39:11;33.60;;;15.90;;
71038;SDS011;58692;43.212;27.908;2023-12-29T06:41:37;27.80;;;14.88;;
71038;SDS011;58692;43.212;27.908;2023-12-29T06:44:02;33.30;;;16.57;;
71038;SDS011;58692;43.212;27.908;2023-12-29T06:46:28;33.92;;;16.77;;
71038;SDS011;58692;43.212;27.908;2023-12-29T06:48:54;35.47;;;17.40;;
71038;SDS011;58692;43.212;27.908;2023-12-29T06:51:20;35.97;;;18.67;;
71038;SDS011;58692;43.212;27.908;2023-12-29T06:53:48;37.83;;;17.67;;
71038;SDS011;58692;43.212;27.908;2023-12-29T06:56:14;33.28;;;18.15;;
71038;SDS011;58692;43.212;27.908;2023-12-29T06:58:41;32.42;;;18.55;;
71038;SDS011;58692;43.212;27.908;2023-12-29T07:01:07;34.05;;;18.58;;
71038;SDS011;58692;43.212;27.908;2023-12-29T07:03:32;31.30;;;16.97;;
71038;SDS011;58692;43.212;27.908;2023-12-29T07:06:01;31.48;;;16.98;;
71038;SDS011;58692;43.212;27.908;2023-12-29T07:08:28;34.38;;;16.85;;
71038;SDS011;58692;43.212;27.908;2023-12-29T07:10:53;30.90;;;16.93;;
71038;SDS011;58692;43.212;27.908;2023-12-29T07:13:19;34.17;;;18.50;;
71038;SDS011;58692;43.212;27.908;2023-12-29T07:15:46;34.40;;;19.63;;
71038;SDS011;58692;43.212;27.908;2023-12-29T07:18:13;39.17;;;19.58;;
71038;SDS011;58692;43.212;27.908;2023-12-29T07:20:39;38.40;;;19.48;;
71038;SDS011;58692;43.212;27.908;2023-12-29T07:23:04;35.53;;;18.13;;
71038;SDS011;58692;43.212;27.908;2023-12-29T07:25:30;38.63;;;18.50;;
71038;SDS011;58692;43.212;27.908;2023-12-29T07:27:56;38.83;;;19.30;;
71038;SDS011;58692;43.212;27.908;2023-12-29T07:30:21;40.67;;;23.30;;
71038;SDS011;58692;43.212;27.908;2023-12-29T07:32:47;45.53;;;22.70;;
71038;SDS011;58692;43.212;27.908;2023-12-29T07:35:13;43.53;;;23.23;;
71038;SDS011;58692;43.212;27.908;2023-12-29T07:37:41;37.95;;;20.88;;
71038;SDS011;58692;43.212;27.908;2023-12-29T07:40:09;32.92;;;19.73;;
71038;SDS011;58692;43.212;27.908;2023-12-29T07:42:35;38.80;;;18.37;;
71038;SDS011;58692;43.212;27.908;2023-12-29T07:45:01;32.03;;;16.60;;
71038;SDS011;58692;43.212;27.908;2023-12-29T07:47:27;35.17;;;17.73;;
71038;SDS011;58692;43.212;27.908;2023-12-29T07:49:52;34.95;;;17.58;;
71038;SDS011;58692;43.212;27.908;2023-12-29T07:52:18;33.17;;;18.30;;
71038;SDS011;58692;43.212;27.908;2023-12-29T07:54:44;32.15;;;18.30;;
71038;SDS011;58692;43.212;27.908;2023-12-29T07:57:09;30.63;;;16.47;;
71038;SDS011;58692;43.212;27.908;2023-12-29T07:59:35;30.10;;;15.97;;
71038;SDS011;58692;43.212;27.908;2023-12-29T08:02:00;32.85;;;15.85;;
71038;SDS011;58692;43.212;27.908;2023-12-29T08:04:26;27.53;;;15.37;;
71038;SDS011;58692;43.212;27.908;2023-12-29T08:06:52;28.40;;;14.13;;
71038;SDS011;58692;43.212;27.908;2023-12-29T08:09:17;33.93;;;14.80;;
71038;SDS011;58692;43.212;27.908;2023-12-29T08:11:43;31.60;;;15.02;;
71038;SDS011;58692;43.212;27.908;2023-12-29T08:14:08;33.47;;;15.83;;
71038;SDS011;58692;43.212;27.908;2023-12-29T08:16:38;31.15;;;15.68;;
71038;SDS011;58692;43.212;27.908;2023-12-29T08:19:05;33.17;;;16.60;;
71038;SDS011;58692;43.212;27.908;2023-12-29T08:21:31;34.40;;;18.23;;
71038;SDS011;58692;43.212;27.908;2023-12-29T08:23:57;29.92;;;15.50;;
71038;SDS011;58692;43.212;27.908;2023-12-29T08:26:23;27.37;;;14.50;;
71038;SDS011;58692;43.212;27.908;2023-12-29T08:28:48;24.77;;;12.97;;
71038;SDS011;58692;43.212;27.908;2023-12-29T08:31:14;26.52;;;14.13;;
71038;SDS011;58692;43.212;27.908;2023-12-29T08:33:41;27.83;;;14.02;;
71038;SDS011;58692;43.212;27.908;2023-12-29T08:36:07;31.37;;;13.77;;
71038;SDS011;58692;43.212;27.908;2023-12-29T08:38:32;31.45;;;13.80;;
71038;SDS011;58692;43.212;27.908;2023-12-29T08:40:58;20.33;;;11.93;;
71038;SDS011;58692;43.212;27.908;2023-12-29T08:43:25;25.02;;;11.70;;
71038;SDS011;58692;43.212;27.908;2023-12-29T08:45:51;26.20;;;12.70;;
71038;SDS011;58692;43.212;27.908;2023-12-29T08:48:17;26.17;;;12.90;;
71038;SDS011;58692;43.212;27.908;2023-12-29T08:50:42;22.55;;;11.77;;
71038;SDS011;58692;43.212;27.908;2023-12-29T08:53:09;22.23;;;11.93;;
71038;SDS011;58692;43.212;27.908;2023-12-29T08:55:34;24.23;;;10.93;;
71038;SDS011;58692;43.212;27.908;2023-12-29T08:58:00;21.27;;;11.07;;
71038;SDS011;58692;43.212;27.908;2023-12-29T09:00:26;25.75;;;11.20;;
71038;SDS011;58692;43.212;27.908;2023-12-29T09:02:52;24.23;;;11.80;;
71038;SDS011;58692;43.212;27.908;2023-12-29T09:05:18;25.30;;;12.63;;
71038;SDS011;58692;43.212;27.908;2023-12-29T09:07:43;31.58;;;13.50;;
71038;SDS011;58692;43.212;27.908;2023-12-29T09:10:09;29.67;;;14.17;;
71038;SDS011;58692;43.212;27.908;2023-12-29T09:12:37;30.20;;;13.48;;
71038;SDS011;58692;43.212;27.908;2023-12-29T09:15:04;29.52;;;12.65;;
71038;SDS011;58692;43.212;27.908;2023-12-29T09:17:30;24.77;;;13.13;;
71038;SDS011;58692;43.212;27.908;2023-12-29T09:19:56;25.00;;;13.98;;
71038;SDS011;58692;43.212;27.908;2023-12-29T09:22:22;29.03;;;15.77;;
71038;SDS011;58692;43.212;27.908;2023-12-29T09:24:47;30.33;;;16.60;;
71038;SDS011;58692;43.212;27.908;2023-12-29T09:27:13;31.13;;;14.30;;
71038;SDS011;58692;43.212;27.908;2023-12-29T09:29:39;23.17;;;11.85;;
71038;SDS011;58692;43.212;27.908;2023-12-29T09:32:05;18.97;;;11.10;;
71038;SDS011;58692;43.212;27.908;2023-12-29T09:34:31;21.08;;;10.75;;
71038;SDS011;58692;43.212;27.908;2023-12-29T09:36:57;18.90;;;10.52;;
71038;SDS011;58692;43.212;27.908;2023-12-29T09:39:23;19.23;;;10.38;;
71038;SDS011;58692;43.212;27.908;2023-12-29T09:41:51;22.23;;;10.00;;
71038;SDS011;58692;43.212;27.908;2023-12-29T09:44:20;19.05;;;9.95;;
71038;SDS011;58692;43.212;27.908;2023-12-29T09:46:49;18.20;;;9.45;;
71038;SDS011;58692;43.212;27.908;2023-12-29T09:49:18;18.67;;;10.60;;
71038;SDS011;58692;43.212;27.908;2023-12-29T09:51:45;17.92;;;10.43;;
71038;SDS011;58692;43.212;27.908;2023-12-29T09:54:11;20.55;;;11.25;;
71038;SDS011;58692;43.212;27.908;2023-12-29T09:56:38;18.88;;;10.60;;
71038;SDS011;58692;43.212;27.908;2023-12-29T09:59:04;24.10;;;11.80;;
71038;SDS011;58692;43.212;27.908;2023-12-29T10:01:31;22.80;;;11.68;;
71038;SDS011;58692;43.212;27.908;2023-12-29T10:03:58;22.17;;;11.10;;
71038;SDS011;58692;43.212;27.908;2023-12-29T10:06:24;20.08;;;11.18;;
71038;SDS011;58692;43.212;27.908;2023-12-29T10:08:51;21.33;;;11.07;;
71038;SDS011;58692;43.212;27.908;2023-12-29T10:11:20;21.77;;;10.82;;
71038;SDS011;58692;43.212;27.908;2023-12-29T10:13:49;18.98;;;10.43;;
71038;SDS011;58692;43.212;27.908;2023-12-29T10:19:10;18.35;;;9.65;;
71038;SDS011;58692;43.212;27.908;2023-12-29T10:21:52;20.23;;;10.60;;
71038;SDS011;58692;43.212;27.908;2023-12-29T10:24:27;19.13;;;9.82;;
71038;SDS011;58692;43.212;27.908;2023-12-29T10:26:53;15.80;;;9.27;;
71038;SDS011;58692;43.212;27.908;2023-12-29T10:29:20;18.90;;;10.07;;
71038;SDS011;58692;43.212;27.908;2023-12-29T10:31:46;21.85;;;10.02;;
71038;SDS011;58692;43.212;27.908;2023-12-29T10:34:20;18.57;;;10.20;;
71038;SDS011;58692;43.212;27.908;2023-12-29T10:36:54;19.83;;;10.00;;
71038;SDS011;58692;43.212;27.908;2023-12-29T10:39:21;21.35;;;11.27;;
71038;SDS011;58692;43.212;27.908;2023-12-29T10:41:47;18.63;;;10.52;;
71038;SDS011;58692;43.212;27.908;2023-12-29T10:44:13;16.47;;;9.80;;
71038;SDS011;58692;43.212;27.908;2023-12-29T10:46:38;19.70;;;10.27;;
71038;SDS011;58692;43.212;27.908;2023-12-29T10:49:08;17.33;;;9.83;;
71038;SDS011;58692;43.212;27.908;2023-12-29T10:51:35;18.30;;;9.55;;
71038;SDS011;58692;43.212;27.908;2023-12-29T10:54:02;18.42;;;9.70;;
71038;SDS011;58692;43.212;27.908;2023-12-29T10:56:28;18.23;;;9.63;;
71038;SDS011;58692;43.212;27.908;2023-12-29T10:58:59;17.80;;;9.53;;
71038;SDS011;58692;43.212;27.908;2023-12-29T11:01:28;16.50;;;9.38;;
71038;SDS011;58692;43.212;27.908;2023-12-29T11:03:58;18.65;;;9.55;;
71038;SDS011;58692;43.212;27.908;2023-12-29T11:06:27;14.30;;;8.43;;
71038;SDS011;58692;43.212;27.908;2023-12-29T11:08:54;18.08;;;8.90;;
71038;SDS011;58692;43.212;27.908;2023-12-29T11:11:20;18.23;;;8.90;;
71038;SDS011;58692;43.212;27.908;2023-12-29T11:13:47;18.65;;;9.48;;
71038;SDS011;58692;43.212;27.908;2023-12-29T11:16:13;18.35;;;9.27;;
71038;SDS011;58692;43.212;27.908;2023-12-29T11:18:43;17.42;;;8.73;;
71038;SDS011;58692;43.212;27.908;2023-12-29T11:21:10;18.38;;;9.90;;
71038;SDS011;58692;43.212;27.908;2023-12-29T11:23:35;19.37;;;9.50;;
71038;SDS011;58692;43.212;27.908;2023-12-29T11:26:02;14.98;;;9.20;;
71038;SDS011;58692;43.212;27.908;2023-12-29T11:28:28;15.15;;;8.52;;
71038;SDS011;58692;43.212;27.908;2023-12-29T11:30:54;15.43;;;8.80;;
71038;SDS011;58692;43.212;27.908;2023-12-29T11:33:22;18.02;;;8.50;;
71038;SDS011;58692;43.212;27.908;2023-12-29T11:43:55;19.45;;;8.98;;
71038;SDS011;58692;43.212;27.908;2023-12-29T11:49:05;15.93;;;8.60;;
71038;SDS011;58692;43.212;27.908;2023-12-29T11:53:58;15.07;;;8.57;;
71038;SDS011;58692;43.212;27.908;2023-12-29T11:56:24;16.17;;;8.52;;
71038;SDS011;58692;43.212;27.908;2023-12-29T11:58:55;16.30;;;8.35;;
71038;SDS011;58692;43.212;27.908;2023-12-29T12:04:02;18.90;;;8.93;;
71038;SDS011;58692;43.212;27.908;2023-12-29T12:09:17;32.03;;;13.47;;
71038;SDS011;58692;43.212;27.908;2023-12-29T12:11:48;20.67;;;10.75;;
71038;SDS011;58692;43.212;27.908;2023-12-29T12:17:10;17.48;;;9.90;;
71038;SDS011;58692;43.212;27.908;2023-12-29T12:19:36;16.00;;;8.88;;
71038;SDS011;58692;43.212;27.908;2023-12-29T12:22:03;37.10;;;15.73;;
71038;SDS011;58692;43.212;27.908;2023-12-29T12:24:31;16.55;;;8.85;;
71038;SDS011;58692;43.212;27.908;2023-12-29T12:27:00;17.42;;;9.52;;
71038;SDS011;58692;43.212;27.908;2023-12-29T12:29:27;15.80;;;7.43;;
71038;SDS011;58692;43.212;27.908;2023-12-29T12:31:53;20.47;;;8.10;;
71038;SDS011;58692;43.212;27.908;2023-12-29T12:34:20;14.95;;;7.38;;
71038;SDS011;58692;43.212;27.908;2023-12-29T12:36:53;14.07;;;6.10;;
71038;SDS011;58692;43.212;27.908;2023-12-29T12:39:21;12.48;;;6.05;;
71038;SDS011;58692;43.212;27.908;2023-12-29T12:41:48;15.32;;;5.55;;
71038;SDS011;58692;43.212;27.908;2023-12-29T12:44:14;10.77;;;4.63;;
71038;SDS011;58692;43.212;27.908;2023-12-29T12:46:50;13.32;;;5.57;;
71038;SDS011;58692;43.212;27.908;2023-12-29T12:49:18;9.98;;;5.15;;
71038;SDS011;58692;43.212;27.908;2023-12-29T12:51:45;14.63;;;5.63;;
71038;SDS011;58692;43.212;27.908;2023-12-29T12:54:10;11.13;;;5.27;;
71038;SDS011;58692;43.212;27.908;2023-12-29T12:56:40;13.57;;;5.75;;
71038;SDS011;58692;43.212;27.908;2023-12-29T12:59:07;13.10;;;5.68;;
71038;SDS011;58692;43.212;27.908;2023-12-29T13:01:34;11.75;;;5.03;;
71038;SDS011;58692;43.212;27.908;2023-12-29T13:04:01;10.20;;;5.27;;
71038;SDS011;58692;43.212;27.908;2023-12-29T13:06:29;13.32;;;6.25;;
71038;SDS011;58692;43.212;27.908;2023-12-29T13:08:56;14.30;;;5.60;;
71038;SDS011;58692;43.212;27.908;2023-12-29T13:11:22;15.13;;;6.37;;
71038;SDS011;58692;43.212;27.908;2023-12-29T13:13:50;13.15;;;5.82;;
71038;SDS011;58692;43.212;27.908;2023-12-29T13:16:15;11.27;;;5.72;;
71038;SDS011;58692;43.212;27.908;2023-12-29T13:18:41;13.37;;;5.57;;
71038;SDS011;58692;43.212;27.908;2023-12-29T13:21:07;11.48;;;5.50;;
71038;SDS011;58692;43.212;27.908;2023-12-29T13:23:34;11.63;;;4.90;;
71038;SDS011;58692;43.212;27.908;2023-12-29T13:26:02;12.97;;;5.60;;
71038;SDS011;58692;43.212;27.908;2023-12-29T13:28:32;13.88;;;5.78;;
71038;SDS011;58692;43.212;27.908;2023-12-29T13:30:59;11.77;;;5.95;;
71038;SDS011;58692;43.212;27.908;2023-12-29T13:33:29;14.50;;;5.93;;
71038;SDS011;58692;43.212;27.908;2023-12-29T13:36:05;14.45;;;6.30;;
71038;SDS011;58692;43.212;27.908;2023-12-29T13:38:39;15.87;;;7.87;;
71038;SDS011;58692;43.212;27.908;2023-12-29T13:41:12;15.13;;;5.85;;
71038;SDS011;58692;43.212;27.908;2023-12-29T13:43:41;18.45;;;5.85;;
71038;SDS011;58692;43.212;27.908;2023-12-29T13:46:11;13.65;;;5.72;;
71038;SDS011;58692;43.212;27.908;2023-12-29T13:48:37;14.48;;;5.97;;
71038;SDS011;58692;43.212;27.908;2023-12-29T13:51:04;14.87;;;5.50;;
71038;SDS011;58692;43.212;27.908;2023-12-29T13:53:30;10.98;;;5.03;;
71038;SDS011;58692;43.212;27.908;2023-12-29T13:58:37;13.07;;;6.20;;
71038;SDS011;58692;43.212;27.908;2023-12-29T14:01:05;11.50;;;5.88;;
71038;SDS011;58692;43.212;27.908;2023-12-29T14:03:43;11.75;;;5.25;;
71038;SDS011;58692;43.212;27.908;2023-12-29T14:06:12;16.60;;;6.60;;
71038;SDS011;58692;43.212;27.908;2023-12-29T14:08:46;12.13;;;5.55;;
71038;SDS011;58692;43.212;27.908;2023-12-29T14:11:12;15.05;;;6.15;;
71038;SDS011;58692;43.212;27.908;2023-12-29T14:13:41;12.40;;;5.60;;
71038;SDS011;58692;43.212;27.908;2023-12-29T14:16:08;17.60;;;6.68;;
71038;SDS011;58692;43.212;27.908;2023-12-29T14:21:00;14.45;;;6.20;;
71038;SDS011;58692;43.212;27.908;2023-12-29T14:23:26;15.07;;;7.03;;
71038;SDS011;58692;43.212;27.908;2023-12-29T14:25:51;21.65;;;8.68;;
71038;SDS011;58692;43.212;27.908;2023-12-29T14:28:18;21.37;;;9.17;;
71038;SDS011;58692;43.212;27.908;2023-12-29T14:30:46;19.27;;;8.70;;
71038;SDS011;58692;43.212;27.908;2023-12-29T14:33:11;18.57;;;8.43;;
71038;SDS011;58692;43.212;27.908;2023-12-29T14:35:37;18.67;;;8.07;;
71038;SDS011;58692;43.212;27.908;2023-12-29T14:38:03;18.27;;;9.27;;
71038;SDS011;58692;43.212;27.908;2023-12-29T14:40:29;19.88;;;8.32;;
71038;SDS011;58692;43.212;27.908;2023-12-29T14:42:55;20.75;;;9.68;;